Doubs, Maryland
Current Conditions -  °F | °C
As of 7:50 PM on Friday 24 Oct 2014 (Local Time) from KFDK Reporting Station
Clear Clear  
Wind Chill: 64°   Ceiling: Unl
Heat Index: 64°   Visibility: 10mi
Dew Point: 30°   Wind: 3mph
Humidity: 28%   Direction: NA
Pressure: 29.97"   Gusts: NA
Location:  39.293°N, 77.4503°W
Report Text: KFDK 242350Z VRB03KT 10SM SKC 18/M01 A2997
Loading
Personal Weather Stations






























Interactive Weather Map
Tropical Storm Tracking
New forecast layout! Learn more

10-Day Weather Forecast

Advertisements
Track Severe Weather on mobile